Strona główna
METAR-TAF:

METAR-TAF

Lotnisko :

Port lotniczy Land’s End

Land's End, Anglia

Szerokość geograficzna: 50-06-10N, Długość geograficzna: 005-40-14W, wysokość: 122 m

Aktualna obserwacja pogody

Raport powstał 3 godziny i 18 minut temu, godzina 10:50 UTC
Wiatr 16 kt od północny wschód
Temperatura 9°C
Wilgotność 61%
Ciśnienie 1027 hPa
Widzialność 10 km lub więcej
Brak chmur poniżej 1500 m i brak chmur cumulonimbus

METAR: EGHC 281050Z 05016KT CAVOK 09/02 Q1027

czas: 14:08 (14:08 UTC)

Prognoza

Raport powstał 5 godziny i 8 minut temu, godzina 09:00 UTC
Prognoza ważna od 28 godzina 09 UTC do 28 godzina 12 UTC
Wiatr 16 kt od północny wschód
Widzialność 10 km lub więcej
Brak chmur poniżej 1500 m i brak chmur cumulonimbus
Przejściowo
od 28 godzina 09 UTC do 28 godzina 12 UTC
Wiatr 20 kt od wschodnio-północny wschód w porywach dochodzący do 30 kt

TAF: EGHC 280900Z 2809/2812 05016KT CAVOK TEMPO 2809/2812 06020G30KT

Obserwacja i prognoza pogody dla ponad 4000 lotnisk (raport METAR i TAF).

Dostępne stacje oznaczono żółtymi i czerwonymi punktami na mapie.

Najedź kursorem aby zobaczyć nazwę stacji.

Kliknij aby zobaczyć obserwacje i prognozy pogody.

Aby zmienić mapę: kliknij na zielony przycisk z czarnym krzyżykiem, aby powiększyć; na zielony przycisk z myślnikiem, aby pomniejszyć; na zielone strzałki, aby przejść do map sąsiednich.


METAR-TAF: